sensor_id;sensor_type;location;lat;lon;timestamp;P1;durP1;ratioP1;P2;durP2;ratioP2
65053;SDS011;51639;47.828;35.038;2022-12-07T00:07:25;2.83;;;2.27;;
65053;SDS011;51639;47.828;35.038;2022-12-07T00:22:28;2.70;;;2.20;;
65053;SDS011;51639;47.828;35.038;2022-12-07T00:37:30;4.30;;;3.20;;
65053;SDS011;51639;47.828;35.038;2022-12-07T00:52:32;4.63;;;2.80;;
65053;SDS011;51639;47.828;35.038;2022-12-07T01:07:34;5.97;;;2.57;;
65053;SDS011;51639;47.828;35.038;2022-12-07T01:22:36;9.03;;;3.37;;
65053;SDS011;51639;47.828;35.038;2022-12-07T01:37:39;2.63;;;2.33;;
65053;SDS011;51639;47.828;35.038;2022-12-07T01:52:41;5.20;;;2.90;;
65053;SDS011;51639;47.828;35.038;2022-12-07T02:07:47;2.87;;;2.50;;
65053;SDS011;51639;47.828;35.038;2022-12-07T02:23:02;5.60;;;2.30;;
65053;SDS011;51639;47.828;35.038;2022-12-07T02:38:43;6.70;;;3.27;;
65053;SDS011;51639;47.828;35.038;2022-12-07T02:53:51;5.27;;;3.50;;
65053;SDS011;51639;47.828;35.038;2022-12-07T03:08:57;4.67;;;3.47;;
65053;SDS011;51639;47.828;35.038;2022-12-07T03:24:14;4.37;;;3.47;;
65053;SDS011;51639;47.828;35.038;2022-12-07T03:39:34;3.57;;;3.27;;
65053;SDS011;51639;47.828;35.038;2022-12-07T03:54:46;6.07;;;3.20;;
65053;SDS011;51639;47.828;35.038;2022-12-07T04:09:49;3.17;;;2.80;;
65053;SDS011;51639;47.828;35.038;2022-12-07T04:24:51;6.13;;;4.30;;
65053;SDS011;51639;47.828;35.038;2022-12-07T04:39:53;4.40;;;3.87;;
65053;SDS011;51639;47.828;35.038;2022-12-07T04:54:55;4.97;;;3.43;;
65053;SDS011;51639;47.828;35.038;2022-12-07T05:09:57;5.90;;;4.17;;
65053;SDS011;51639;47.828;35.038;2022-12-07T05:24:59;6.17;;;4.73;;
65053;SDS011;51639;47.828;35.038;2022-12-07T05:40:01;10.70;;;4.20;;
65053;SDS011;51639;47.828;35.038;2022-12-07T05:55:03;12.50;;;3.17;;
65053;SDS011;51639;47.828;35.038;2022-12-07T06:10:05;7.57;;;4.10;;
65053;SDS011;51639;47.828;35.038;2022-12-07T06:25:08;5.53;;;3.33;;
65053;SDS011;51639;47.828;35.038;2022-12-07T06:40:14;10.37;;;4.37;;
65053;SDS011;51639;47.828;35.038;2022-12-07T06:55:16;4.23;;;3.83;;
65053;SDS011;51639;47.828;35.038;2022-12-07T07:10:18;8.03;;;4.70;;
65053;SDS011;51639;47.828;35.038;2022-12-07T07:25:20;6.43;;;4.90;;
65053;SDS011;51639;47.828;35.038;2022-12-07T07:40:23;4.77;;;3.07;;
65053;SDS011;51639;47.828;35.038;2022-12-07T07:55:26;9.87;;;5.47;;
65053;SDS011;51639;47.828;35.038;2022-12-07T08:10:27;4.57;;;3.77;;
65053;SDS011;51639;47.828;35.038;2022-12-07T08:25:29;6.13;;;4.97;;
65053;SDS011;51639;47.828;35.038;2022-12-07T08:40:31;12.30;;;4.80;;
65053;SDS011;51639;47.828;35.038;2022-12-07T08:55:33;8.03;;;4.80;;
65053;SDS011;51639;47.828;35.038;2022-12-07T09:26:14;8.63;;;4.53;;
65053;SDS011;51639;47.828;35.038;2022-12-07T09:41:16;11.97;;;5.10;;
65053;SDS011;51639;47.828;35.038;2022-12-07T09:56:19;11.50;;;6.90;;
65053;SDS011;51639;47.828;35.038;2022-12-07T10:11:26;9.27;;;5.93;;
65053;SDS011;51639;47.828;35.038;2022-12-07T10:42:15;7.57;;;4.33;;
65053;SDS011;51639;47.828;35.038;2022-12-07T11:13:04;9.53;;;5.23;;
65053;SDS011;51639;47.828;35.038;2022-12-07T11:28:56;8.93;;;6.00;;
65053;SDS011;51639;47.828;35.038;2022-12-07T11:59:38;11.23;;;5.83;;
65053;SDS011;51639;47.828;35.038;2022-12-07T12:30:23;7.83;;;4.67;;
65053;SDS011;51639;47.828;35.038;2022-12-07T12:45:36;12.13;;;6.17;;
65053;SDS011;51639;47.828;35.038;2022-12-07T13:00:38;14.33;;;4.20;;
65053;SDS011;51639;47.828;35.038;2022-12-07T13:15:46;8.17;;;4.53;;
65053;SDS011;51639;47.828;35.038;2022-12-07T13:31:01;7.40;;;4.53;;
65053;SDS011;51639;47.828;35.038;2022-12-07T13:46:11;8.73;;;5.57;;
65053;SDS011;51639;47.828;35.038;2022-12-07T14:01:23;12.53;;;5.30;;
65053;SDS011;51639;47.828;35.038;2022-12-07T14:16:36;12.40;;;6.07;;
65053;SDS011;51639;47.828;35.038;2022-12-07T14:31:46;11.90;;;6.97;;
65053;SDS011;51639;47.828;35.038;2022-12-07T14:46:48;16.30;;;6.70;;
65053;SDS011;51639;47.828;35.038;2022-12-07T15:02:15;14.03;;;7.07;;
65053;SDS011;51639;47.828;35.038;2022-12-07T15:17:17;16.07;;;7.83;;
65053;SDS011;51639;47.828;35.038;2022-12-07T15:32:32;8.60;;;4.73;;
65053;SDS011;51639;47.828;35.038;2022-12-07T15:47:40;13.93;;;6.67;;
65053;SDS011;51639;47.828;35.038;2022-12-07T16:03:04;7.97;;;4.80;;
65053;SDS011;51639;47.828;35.038;2022-12-07T16:18:06;8.70;;;5.37;;
65053;SDS011;51639;47.828;35.038;2022-12-07T16:33:09;11.03;;;7.03;;
65053;SDS011;51639;47.828;35.038;2022-12-07T16:48:11;14.27;;;6.20;;
65053;SDS011;51639;47.828;35.038;2022-12-07T17:03:13;14.50;;;5.30;;
65053;SDS011;51639;47.828;35.038;2022-12-07T17:18:21;10.23;;;5.87;;
65053;SDS011;51639;47.828;35.038;2022-12-07T17:33:22;7.90;;;5.30;;
65053;SDS011;51639;47.828;35.038;2022-12-07T17:48:24;8.67;;;5.03;;
65053;SDS011;51639;47.828;35.038;2022-12-07T18:03:26;7.30;;;4.40;;
65053;SDS011;51639;47.828;35.038;2022-12-07T18:18:28;7.47;;;4.67;;
65053;SDS011;51639;47.828;35.038;2022-12-07T18:33:30;6.57;;;4.67;;
65053;SDS011;51639;47.828;35.038;2022-12-07T18:48:32;15.10;;;5.97;;
65053;SDS011;51639;47.828;35.038;2022-12-07T19:03:34;12.23;;;6.43;;
65053;SDS011;51639;47.828;35.038;2022-12-07T19:18:36;12.87;;;6.30;;
65053;SDS011;51639;47.828;35.038;2022-12-07T19:33:38;8.33;;;5.30;;
65053;SDS011;51639;47.828;35.038;2022-12-07T19:48:40;11.90;;;7.03;;
65053;SDS011;51639;47.828;35.038;2022-12-07T20:03:42;12.93;;;6.67;;
65053;SDS011;51639;47.828;35.038;2022-12-07T20:18:44;15.10;;;4.93;;
65053;SDS011;51639;47.828;35.038;2022-12-07T20:33:46;13.50;;;7.13;;
65053;SDS011;51639;47.828;35.038;2022-12-07T20:48:49;11.70;;;5.63;;
65053;SDS011;51639;47.828;35.038;2022-12-07T21:03:58;15.40;;;7.93;;
65053;SDS011;51639;47.828;35.038;2022-12-07T21:19:02;14.13;;;7.50;;
65053;SDS011;51639;47.828;35.038;2022-12-07T21:34:06;14.73;;;7.77;;
65053;SDS011;51639;47.828;35.038;2022-12-07T21:49:12;10.67;;;6.47;;
65053;SDS011;51639;47.828;35.038;2022-12-07T22:04:16;17.60;;;7.40;;
65053;SDS011;51639;47.828;35.038;2022-12-07T22:19:20;21.67;;;8.57;;
65053;SDS011;51639;47.828;35.038;2022-12-07T22:34:22;17.10;;;8.13;;
65053;SDS011;51639;47.828;35.038;2022-12-07T22:49:24;14.50;;;7.40;;
65053;SDS011;51639;47.828;35.038;2022-12-07T23:04:29;17.77;;;8.27;;
65053;SDS011;51639;47.828;35.038;2022-12-07T23:19:31;10.63;;;6.27;;
65053;SDS011;51639;47.828;35.038;2022-12-07T23:34:33;14.07;;;6.43;;
65053;SDS011;51639;47.828;35.038;2022-12-07T23:49:35;13.90;;;7.23;;
